Time;durP1;ratioP1;P1;durP2;ratioP2;P2;SDS_P1;SDS_P2;PMS_P1;PMS_P2;Temp;Humidity;BMP_temperature;BMP_pressure;BME280_temperature;BME280_humidity;BME280_pressure;Samples;Min_cycle;Max_cycle;Signal;HPM_P1;HPM_P2
2022/09/25 00:03:13;;;;;;;14.73;8.90;;;;;;;16.04;48.24;100305.75;10104247;29;20269;-81
2022/09/25 00:08:35;;;;;;;12.90;7.47;;;;;;;16.18;47.47;100306.06;10065497;29;20293;-80
2022/09/25 00:14:00;;;;;;;12.17;7.43;;;;;;;16.46;45.98;100305.03;10114838;29;20254;-80
2022/09/25 00:25:03;;;;;;;12.73;7.80;;;;;;;16.39;46.46;100310.59;10091121;29;20250;-80
2022/09/25 00:30:25;;;;;;;10.23;7.33;;;;;;;16.38;46.27;100315.47;10102505;29;20273;-79
2022/09/25 00:35:47;;;;;;;12.47;6.97;;;;;;;15.87;47.19;100311.91;10082142;29;20234;-79
2022/09/25 00:41:09;;;;;;;13.23;6.73;;;;;;;16.06;46.89;100311.91;10086316;29;20213;-79
2022/09/25 00:46:37;;;;;;;10.13;7.13;;;;;;;16.37;46.81;100302.44;10111075;29;20281;-79
2022/09/25 00:52:03;;;;;;;10.57;6.80;;;;;;;16.71;45.69;100311.19;10068414;29;20727;-79
2022/09/25 00:57:29;;;;;;;11.43;7.10;;;;;;;16.24;47.62;100308.66;10091717;29;20627;-80
2022/09/25 01:02:52;;;;;;;11.13;7.50;;;;;;;16.53;46.10;100310.88;10092630;29;20205;-79
2022/09/25 01:08:19;;;;;;;11.87;7.93;;;;;;;16.13;48.09;100319.78;10078780;29;20222;-79
2022/09/25 01:13:41;;;;;;;10.77;8.23;;;;;;;15.98;48.19;100317.81;10106730;29;20221;-79
2022/09/25 01:19:21;;;;;;;15.80;8.60;;;;;;;15.93;48.40;100327.47;10057909;29;20511;-79
2022/09/25 01:25:00;;;;;;;11.57;7.20;;;;;;;16.24;48.22;100320.84;10076673;29;20222;-80
2022/09/25 01:30:22;;;;;;;13.23;6.30;;;;;;;15.40;49.49;100327.00;10094298;29;20272;-80
2022/09/25 01:35:51;;;;;;;7.47;4.77;;;;;;;15.76;49.90;100328.69;10067661;29;20265;-79
2022/09/25 01:41:13;;;;;;;7.93;5.03;;;;;;;15.81;50.18;100325.56;10082718;29;20515;-79
2022/09/25 01:46:40;;;;;;;10.33;4.47;;;;;;;15.70;50.19;100326.53;10096081;29;20253;-79
2022/09/25 01:52:06;;;;;;;8.20;3.77;;;;;;;15.79;49.75;100329.97;10093109;29;20237;-80
2022/09/25 01:57:35;;;;;;;13.13;4.67;;;;;;;15.97;49.32;100328.38;10084150;29;20209;-79
2022/09/25 02:03:11;;;;;;;9.13;4.00;;;;;;;16.09;49.01;100324.56;10081593;29;20493;-79
2022/09/25 02:08:35;;;;;;;12.87;4.73;;;;;;;15.49;50.46;100330.50;10076517;29;20222;-79
2022/09/25 02:14:05;;;;;;;11.13;3.83;;;;;;;15.70;49.68;100324.50;10100236;29;20234;-79
2022/09/25 02:25:13;;;;;;;8.50;2.80;;;;;;;15.98;48.23;100321.50;10093612;29;20258;-79
2022/09/25 02:30:35;;;;;;;11.73;3.07;;;;;;;15.77;48.56;100323.84;10067799;29;20234;-79
2022/09/25 02:35:59;;;;;;;4.23;2.27;;;;;;;15.81;48.17;100330.44;10110032;29;20226;-78
2022/09/25 02:41:40;;;;;;;8.13;2.33;;;;;;;15.33;49.49;100324.00;10094821;29;20258;-80
2022/09/25 02:47:16;;;;;;;8.63;1.70;;;;;;;15.60;48.52;100321.44;10097616;29;20273;-80
2022/09/25 02:52:52;;;;;;;8.83;2.17;;;;;;;15.97;47.74;100322.69;10093613;29;20584;-79
2022/09/25 02:58:18;;;;;;;7.17;1.87;;;;;;;15.63;48.67;100323.53;10111827;29;20194;-80
2022/09/25 03:03:41;;;;;;;7.10;1.70;;;;;;;15.33;48.35;100314.66;10081834;29;20271;-80
2022/09/25 03:09:03;;;;;;;5.83;1.50;;;;;;;15.33;49.11;100318.34;10072906;29;20234;-79
2022/09/25 03:14:26;;;;;;;4.63;1.37;;;;;;;15.72;48.06;100327.00;10093628;29;20226;-80
2022/09/25 03:19:48;;;;;;;6.33;1.97;;;;;;;15.50;48.40;100326.47;10095358;29;20210;-79
2022/09/25 03:25:10;;;;;;;6.93;1.53;;;;;;;15.35;48.94;100324.47;10089958;29;20221;-79
2022/09/25 03:30:32;;;;;;;4.73;1.53;;;;;;;15.31;48.90;100325.56;10098640;29;20588;-79
2022/09/25 03:36:03;;;;;;;4.47;1.30;;;;;;;15.27;49.17;100322.63;10084426;29;20202;-79
2022/09/25 03:41:28;;;;;;;3.27;1.37;;;;;;;15.30;48.57;100332.44;10074247;29;20218;-79
2022/09/25 03:46:50;;;;;;;6.88;1.30;;;;;;;15.81;46.99;100327.59;10099609;29;20282;-79
2022/09/25 03:52:13;;;;;;;8.37;1.40;;;;;;;15.48;47.87;100328.84;10087927;29;20269;-79
2022/09/25 03:57:35;;;;;;;8.67;1.30;;;;;;;14.80;48.97;100331.97;10076783;29;20202;-78
2022/09/25 04:02:58;;;;;;;7.57;1.20;;;;;;;15.36;47.11;100328.97;10087287;29;20198;-79
2022/09/25 04:08:21;;;;;;;10.23;1.50;;;;;;;15.06;48.27;100327.78;10083807;29;20222;-79
2022/09/25 04:13:45;;;;;;;5.63;1.58;;;;;;;15.13;47.26;100327.94;10094621;29;20269;-79
2022/09/25 04:19:07;;;;;;;7.87;1.53;;;;;;;15.09;48.36;100318.53;10070405;29;20258;-79
2022/09/25 04:24:47;;;;;;;12.40;1.40;;;;;;;14.84;48.98;100319.91;10079021;29;20229;-80
2022/09/25 04:30:09;;;;;;;5.67;1.23;;;;;;;15.08;48.43;100316.88;10096204;29;20623;-79
2022/09/25 04:35:31;;;;;;;6.03;1.57;;;;;;;15.00;48.34;100318.72;10091525;29;20210;-80
2022/09/25 04:40:53;;;;;;;8.07;1.53;;;;;;;15.07;47.59;100318.91;10076798;29;20210;-79
2022/09/25 04:46:16;;;;;;;7.00;1.50;;;;;;;15.16;47.05;100322.38;10091426;29;20432;-79
2022/09/25 04:51:38;;;;;;;4.73;1.20;;;;;;;14.61;48.54;100331.00;10088841;29;20225;-79
2022/09/25 04:57:01;;;;;;;9.37;1.70;;;;;;;14.62;48.94;100322.13;10077550;29;20206;-79
2022/09/25 05:02:27;;;;;;;8.70;1.40;;;;;;;14.35;49.29;100325.81;10076939;29;20270;-80
2022/09/25 05:07:54;;;;;;;7.40;1.73;;;;;;;14.38;48.86;100325.91;10087114;29;20258;-79
2022/09/25 05:13:17;;;;;;;5.83;1.10;;;;;;;14.32;49.62;100315.22;10097227;29;20206;-79
2022/09/25 05:18:39;;;;;;;5.83;1.20;;;;;;;14.06;49.83;100313.69;10084925;29;20214;-79
2022/09/25 05:24:01;;;;;;;7.83;1.37;;;;;;;14.35;49.06;100305.97;10097781;29;20715;-80
2022/09/25 05:29:23;;;;;;;6.50;1.50;;;;;;;14.19;49.69;100319.28;10100624;29;20249;-79
2022/09/25 05:34:45;;;;;;;7.07;1.50;;;;;;;13.84;49.42;100324.66;10086061;29;20239;-79
2022/09/25 05:40:08;;;;;;;5.47;1.40;;;;;;;13.97;49.25;100315.78;10106072;29;20301;-79
2022/09/25 05:45:30;;;;;;;7.03;1.10;;;;;;;14.05;49.43;100323.34;10100307;29;20224;-79
2022/09/25 05:50:53;;;;;;;5.77;1.60;;;;;;;13.79;49.50;100320.09;10093211;29;20234;-79
2022/09/25 05:56:16;;;;;;;7.53;1.87;;;;;;;13.77;49.41;100333.78;10085262;29;20304;-80
2022/09/25 06:01:40;;;;;;;9.77;3.40;;;;;;;13.61;50.20;100330.03;10092198;29;20270;-79
2022/09/25 06:07:04;;;;;;;11.03;3.30;;;;;;;13.74;50.24;100334.50;10086054;29;20190;-79
2022/09/25 06:12:29;;;;;;;7.60;2.80;;;;;;;14.18;49.29;100326.16;10096290;29;20556;-79
2022/09/25 06:17:51;;;;;;;12.57;5.43;;;;;;;13.83;49.93;100338.00;10075565;29;20231;-79
2022/09/25 06:23:14;;;;;;;11.97;4.43;;;;;;;13.84;49.90;100331.16;10088191;29;20244;-79
2022/09/25 06:28:36;;;;;;;11.87;4.03;;;;;;;13.66;49.80;100338.31;10101590;29;20265;-79
2022/09/25 06:33:59;;;;;;;17.53;6.17;;;;;;;14.10;48.77;100334.41;10099217;29;20549;-80
2022/09/25 06:39:21;;;;;;;10.40;4.00;;;;;;;14.41;47.87;100342.22;10066482;29;20324;-82
2022/09/25 06:44:44;;;;;;;11.93;4.30;;;;;;;14.18;48.27;100340.31;10083826;29;20517;-81
2022/09/25 06:50:07;;;;;;;6.73;3.03;;;;;;;14.45;47.55;100339.50;10064536;29;20265;-81
2022/09/25 06:55:33;;;;;;;10.07;2.53;;;;;;;14.56;46.90;100342.63;10070915;29;20622;-83
2022/09/25 07:00:56;;;;;;;8.70;1.97;;;;;;;13.94;48.34;100349.69;10110277;29;20267;-82
2022/09/25 07:06:25;;;;;;;8.00;2.30;;;;;;;14.94;46.68;100345.72;10083369;29;20252;-81
2022/09/25 07:11:47;;;;;;;5.20;2.03;;;;;;;15.04;45.70;100347.19;10086044;29;20245;-82
2022/09/25 07:17:09;;;;;;;6.57;1.90;;;;;;;15.16;45.46;100347.09;10097763;29;20225;-83
2022/09/25 07:22:31;;;;;;;4.10;1.33;;;;;;;15.14;45.51;100346.63;10085685;29;20201;-82
2022/09/25 07:27:54;;;;;;;8.53;1.80;;;;;;;15.38;44.83;100346.44;10094239;29;20237;-83
2022/09/25 07:33:18;;;;;;;4.47;1.57;;;;;;;15.58;43.88;100349.38;10063377;29;20800;-83
2022/09/25 07:38:41;;;;;;;9.50;2.47;;;;;;;14.57;46.28;100355.63;10066147;29;20656;-84
2022/09/25 07:44:03;;;;;;;5.77;2.50;;;;;;;14.97;45.42;100361.22;10077426;29;20600;-83
2022/09/25 07:49:25;;;;;;;9.87;3.63;;;;;;;14.52;46.43;100370.88;10113436;29;20229;-83
2022/09/25 07:54:48;;;;;;;7.50;3.03;;;;;;;14.74;45.63;100366.63;10098346;29;20209;-84
2022/09/25 08:00:12;;;;;;;4.53;1.47;;;;;;;15.59;43.23;100351.84;10074037;29;20205;-81
2022/09/25 08:05:34;;;;;;;12.90;7.50;;;;;;;15.65;43.18;100358.06;10079841;29;20238;-84
2022/09/25 08:11:01;;;;;;;10.37;3.00;;;;;;;15.52;43.24;100358.19;10076426;29;20674;-84
2022/09/25 08:16:24;;;;;;;3.22;1.48;;;;;;;15.44;43.50;100373.38;10066201;29;20234;-82
2022/09/25 08:21:48;;;;;;;5.00;1.37;;;;;;;15.40;43.81;100369.63;10076840;29;20524;-83
2022/09/25 08:27:10;;;;;;;8.47;1.60;;;;;;;15.33;43.60;100365.78;10087730;29;20252;-82
2022/09/25 08:32:33;;;;;;;4.30;2.37;;;;;;;15.03;43.41;100356.91;10050024;29;20257;-81
2022/09/25 08:38:26;;;;;;;11.80;6.40;;;;;;;15.66;42.99;100354.03;10082345;29;20573;-83
2022/09/25 08:44:07;;;;;;;7.03;1.45;;;;;;;15.91;42.47;100357.44;10126212;29;20193;-83
2022/09/25 08:49:38;;;;;;;6.40;1.38;;;;;;;15.67;43.09;100361.34;10093902;29;20400;-85
2022/09/25 09:01:27;;;;;;;6.77;1.63;;;;;;;15.62;42.64;100356.81;10104562;29;20280;-83
2022/09/25 09:06:53;;;;;;;7.30;1.07;;;;;;;16.68;40.10;100358.31;10120357;29;20251;-84
2022/09/25 09:12:24;;;;;;;3.90;1.03;;;;;;;15.83;40.92;100357.28;10034356;29;22485;-85
2022/09/25 09:17:46;;;;;;;4.32;1.05;;;;;;;15.78;41.38;100359.59;10084536;29;20260;-83
2022/09/25 09:23:16;;;;;;;8.33;1.43;;;;;;;16.12;40.55;100344.53;10077477;29;20301;-81
2022/09/25 09:28:55;;;;;;;4.10;0.60;;;;;;;15.54;40.56;100351.31;10102265;29;20235;-81
2022/09/25 09:34:39;;;;;;;2.57;0.70;;;;;;;15.83;38.78;100339.41;10077891;29;20617;-83
2022/09/25 09:40:20;;;;;;;4.47;0.90;;;;;;;15.75;39.63;100346.97;10067195;29;20205;-82
2022/09/25 09:46:14;;;;;;;6.10;0.77;;;;;;;15.88;39.89;100330.59;10054675;29;20786;-81
2022/09/25 09:51:43;;;;;;;5.63;0.67;;;;;;;16.04;37.78;100333.38;10065249;29;20328;-84
2022/09/25 09:57:14;;;;;;;4.80;0.70;;;;;;;16.01;38.00;100329.28;10037560;29;20733;-81
2022/09/25 10:02:39;;;;;;;5.93;0.40;;;;;;;16.63;37.21;100321.63;10049159;29;20249;-80
2022/09/25 10:08:01;;;;;;;3.77;0.50;;;;;;;16.79;35.97;100325.19;10044195;29;20286;-81
2022/09/25 10:13:33;;;;;;;2.87;0.43;;;;;;;15.99;35.90;100336.53;10045255;29;20265;-82
2022/09/25 10:19:03;;;;;;;7.88;3.20;;;;;;;16.35;35.86;100326.75;10041648;29;20241;-81
2022/09/25 10:24:50;;;;;;;20.58;13.25;;;;;;;16.70;35.89;100321.75;10026987;29;20258;-81
2022/09/25 10:30:19;;;;;;;3.30;1.20;;;;;;;16.39;36.30;100322.78;10061729;29;20253;-83
2022/09/25 10:35:44;;;;;;;4.03;1.45;;;;;;;15.29;39.09;100325.94;10031264;29;20333;-83
2022/09/25 10:41:16;;;;;;;3.07;0.53;;;;;;;16.89;33.89;100316.03;10035831;29;20810;-85
2022/09/25 10:52:18;;;;;;;2.40;0.77;;;;;;;15.63;38.49;100323.53;10015218;29;20621;-84
2022/09/25 10:57:43;;;;;;;1.33;0.70;;;;;;;16.08;37.16;100326.56;10053343;29;20637;-85
2022/09/25 11:03:06;;;;;;;4.77;0.40;;;;;;;15.88;35.95;100319.25;10032366;29;20721;-84
2022/09/25 11:08:31;;;;;;;4.30;0.77;;;;;;;16.49;35.28;100310.78;10033723;29;20836;-81
2022/09/25 11:13:57;;;;;;;2.83;0.30;;;;;;;16.48;35.38;100314.00;10069010;29;20794;-86
2022/09/25 11:19:19;;;;;;;2.03;0.40;;;;;;;16.78;33.15;100300.78;10033086;29;20257;-81
2022/09/25 11:25:00;;;;;;;3.03;0.50;;;;;;;17.69;32.18;100299.88;10026856;29;20716;-81
2022/09/25 11:30:23;;;;;;;3.33;0.30;;;;;;;17.15;31.74;100300.22;10042893;29;20253;-83
2022/09/25 11:36:07;;;;;;;1.95;0.30;;;;;;;17.37;32.56;100287.13;10058324;29;20226;-82
2022/09/25 11:41:46;;;;;;;3.50;0.47;;;;;;;16.75;34.72;100298.69;10017316;29;20701;-85
2022/09/25 11:47:16;;;;;;;4.43;0.57;;;;;;;16.64;36.08;100286.28;10058111;29;20696;-82
2022/09/25 11:52:39;;;;;;;5.37;0.60;;;;;;;16.57;35.77;100283.28;10047155;29;20257;-80
2022/09/25 11:58:35;;;;;;;1.70;0.65;;;;;;;16.73;33.95;100292.53;10059225;29;20279;-83
2022/09/25 12:04:38;;;;;;;3.50;0.40;;;;;;;18.19;33.04;100278.53;10041405;29;20245;-82
2022/09/25 12:10:24;;;;;;;1.95;0.43;;;;;;;17.13;33.50;100271.28;10066623;29;20248;-80
2022/09/25 12:16:27;;;;;;;2.33;0.30;;;;;;;17.22;31.49;100269.00;10079637;29;20313;-80
2022/09/25 12:22:19;;;;;;;3.45;0.28;;;;;;;16.27;34.14;100273.78;10026587;29;20253;-79
2022/09/25 12:28:19;;;;;;;2.60;0.40;;;;;;;17.15;32.20;100268.88;10062579;29;20382;-82
2022/09/25 12:33:45;;;;;;;2.25;0.50;;;;;;;18.07;29.78;100258.84;10023551;29;20321;-83
2022/09/25 12:39:36;;;;;;;3.67;0.20;;;;;;;18.91;28.57;100235.25;10036904;29;20288;-81
2022/09/25 12:45:31;;;;;;;0.90;0.20;;;;;;;18.28;30.63;100226.91;10044957;29;20300;-84
2022/09/25 12:51:00;;;;;;;2.38;0.80;;;;;;;18.66;28.80;100217.91;10045881;29;20269;-83
2022/09/25 12:56:26;;;;;;;1.20;0.30;;;;;;;17.46;29.56;100222.97;10015850;29;20266;-84
2022/09/25 13:01:56;;;;;;;1.20;0.20;;;;;;;17.93;30.67;100213.03;10082480;29;20225;-80
2022/09/25 13:07:50;;;;;;;2.25;0.35;;;;;;;17.85;29.73;100211.28;10034211;29;20289;-81
2022/09/25 13:13:23;;;;;;;1.30;0.30;;;;;;;17.12;30.32;100222.06;9994920;29;20857;-81
2022/09/25 13:18:47;;;;;;;2.03;0.40;;;;;;;17.14;30.49;100213.13;10053856;29;20230;-82
2022/09/25 13:24:13;;;;;;;4.07;1.20;;;;;;;17.37;29.97;100205.34;10046216;29;20902;-82
2022/09/25 13:29:37;;;;;;;4.70;1.35;;;;;;;17.28;30.81;100211.31;10106442;29;20218;-81
2022/09/25 13:35:03;;;;;;;6.50;5.13;;;;;;;17.11;31.30;100199.66;10000487;29;20644;-81
2022/09/25 13:40:42;;;;;;;4.55;1.88;;;;;;;17.33;33.31;100201.59;10065575;29;20245;-81
2022/09/25 13:46:18;;;;;;;3.40;2.70;;;;;;;17.13;33.08;100197.25;10023045;29;20257;-80
2022/09/25 13:51:43;;;;;;;3.13;0.83;;;;;;;17.53;31.57;100186.03;10069204;29;20265;-82
2022/09/25 13:57:05;;;;;;;2.63;0.80;;;;;;;17.89;31.56;100177.94;10061469;29;20697;-81
2022/09/25 14:02:41;;;;;;;2.10;0.40;;;;;;;17.60;31.30;100188.13;10014234;29;20286;-83
2022/09/25 14:08:12;;;;;;;2.47;0.40;;;;;;;17.54;31.42;100179.13;10033138;29;20236;-80
2022/09/25 14:13:35;;;;;;;2.17;0.65;;;;;;;18.29;31.83;100169.44;10105004;29;20253;-81
2022/09/25 14:18:59;;;;;;;1.57;0.50;;;;;;;18.14;32.42;100164.78;10069789;29;20776;-81
2022/09/25 14:24:27;;;;;;;1.97;0.50;;;;;;;17.90;32.57;100156.78;10022855;29;20564;-80
2022/09/25 14:29:50;;;;;;;2.70;0.57;;;;;;;17.96;31.21;100160.94;10022858;29;20229;-80
2022/09/25 14:35:20;;;;;;;1.92;0.50;;;;;;;18.10;31.56;100160.25;10027433;29;20636;-83
2022/09/25 14:41:09;;;;;;;0.93;0.30;;;;;;;17.39;31.61;100162.22;10072289;29;20340;-81
2022/09/25 14:46:34;;;;;;;0.98;0.10;;;;;;;17.65;29.40;100155.66;10030222;29;20292;-79
2022/09/25 14:52:00;;;;;;;2.57;0.50;;;;;;;17.87;28.60;100146.16;10059097;29;20318;-83
2022/09/25 14:57:25;;;;;;;2.60;0.40;;;;;;;17.52;29.96;100147.34;10061716;29;20607;-83
2022/09/25 15:02:49;;;;;;;2.17;0.33;;;;;;;17.05;30.98;100149.94;10031876;29;20233;-79
2022/09/25 15:08:29;;;;;;;3.57;0.60;;;;;;;17.34;29.66;100132.03;10014847;29;20257;-79
2022/09/25 15:13:53;;;;;;;1.23;0.40;;;;;;;17.07;30.17;100134.09;10019084;29;21005;-81
2022/09/25 15:19:21;;;;;;;0.70;0.10;;;;;;;17.16;29.17;100128.97;10052835;29;20269;-80
2022/09/25 15:24:59;;;;;;;1.75;0.30;;;;;;;17.64;28.76;100126.34;10054812;29;20265;-79
2022/09/25 15:30:25;;;;;;;2.15;0.75;;;;;;;17.49;29.79;100131.00;10044006;29;20245;-79
2022/09/25 15:35:54;;;;;;;1.33;0.30;;;;;;;17.28;30.50;100119.34;10014333;29;20202;-80
2022/09/25 15:41:16;;;;;;;3.40;1.30;;;;;;;17.41;30.25;100120.75;10026699;29;20300;-81
2022/09/25 15:46:45;;;;;;;3.15;0.98;;;;;;;17.19;31.34;100115.94;10087312;29;20253;-82
2022/09/25 15:52:32;;;;;;;1.30;0.40;;;;;;;17.00;31.52;100116.09;10039776;29;20312;-83
2022/09/25 15:58:04;;;;;;;1.70;0.50;;;;;;;17.73;31.36;100100.38;10053106;29;20225;-81
2022/09/25 16:09:22;;;;;;;3.07;0.73;;;;;;;16.06;34.46;100121.41;10045528;29;20769;-82
2022/09/25 16:14:44;;;;;;;2.83;0.88;;;;;;;16.92;32.51;100101.75;10087021;29;20246;-80
2022/09/25 16:20:28;;;;;;;0.77;0.40;;;;;;;17.00;32.95;100114.06;10091752;29;20225;-83
2022/09/25 16:25:50;;;;;;;1.83;0.63;;;;;;;16.40;33.42;100124.50;10072603;29;20257;-83
2022/09/25 16:31:12;;;;;;;0.77;0.28;;;;;;;15.77;34.95;100124.91;10075870;29;20254;-81
2022/09/25 16:36:42;;;;;;;3.33;1.90;;;;;;;16.64;32.84;100126.09;10076900;29;20221;-80
2022/09/25 16:42:20;;;;;;;5.60;2.53;;;;;;;16.39;33.52;100122.84;10088203;29;20254;-83
2022/09/25 16:47:44;;;;;;;2.77;1.23;;;;;;;16.80;32.52;100133.25;10086070;29;20229;-81
2022/09/25 16:53:07;;;;;;;8.73;7.83;;;;;;;16.81;33.51;100134.91;10091914;29;20309;-81
2022/09/25 16:58:29;;;;;;;11.67;8.70;;;;;;;17.02;33.61;100130.78;10082425;29;20281;-81
2022/09/25 17:03:54;;;;;;;6.85;3.53;;;;;;;17.13;33.92;100140.28;10079583;29;20296;-83
2022/09/25 17:09:17;;;;;;;3.30;0.90;;;;;;;16.73;34.26;100138.03;10079968;29;20890;-83
2022/09/25 17:14:42;;;;;;;4.30;2.27;;;;;;;16.83;34.24;100140.22;10095164;29;20840;-83
2022/09/25 17:20:06;;;;;;;10.13;5.27;;;;;;;16.19;35.93;100142.78;10096515;29;20230;-85
2022/09/25 17:25:37;;;;;;;19.47;10.90;;;;;;;16.48;35.85;100144.13;10102862;29;20257;-81
2022/09/25 17:30:59;;;;;;;28.87;17.40;;;;;;;16.30;36.18;100140.16;10094618;29;20237;-80
2022/09/25 17:36:21;;;;;;;30.47;14.37;;;;;;;16.30;36.19;100125.09;10097968;29;20250;-83
2022/09/25 17:41:43;;;;;;;10.48;5.40;;;;;;;16.34;35.50;100120.31;10096205;29;20229;-84
2022/09/25 17:47:08;;;;;;;6.80;2.47;;;;;;;16.16;37.20;100128.50;10086552;29;20692;-84
2022/09/25 17:52:30;;;;;;;4.97;1.20;;;;;;;16.15;36.48;100124.81;10099928;29;20245;-81
2022/09/25 17:57:52;;;;;;;4.33;1.07;;;;;;;15.97;37.17;100123.69;10086884;29;20615;-80
2022/09/25 18:03:14;;;;;;;2.70;1.10;;;;;;;15.84;38.19;100133.59;10093902;29;20222;-80
2022/09/25 18:08:37;;;;;;;3.13;1.17;;;;;;;15.92;37.03;100126.00;10088213;29;20230;-80
2022/09/25 18:13:59;;;;;;;5.40;1.40;;;;;;;16.09;37.40;100131.22;10083336;29;20253;-81
2022/09/25 18:25:02;;;;;;;2.93;1.30;;;;;;;15.93;37.40;100133.34;10082274;29;20312;-81
2022/09/25 18:30:24;;;;;;;3.37;1.13;;;;;;;15.92;38.53;100128.84;10073270;29;20226;-80
2022/09/25 18:35:46;;;;;;;2.30;0.70;;;;;;;15.38;38.71;100130.59;10099597;29;20285;-80
2022/09/25 18:41:08;;;;;;;2.43;1.00;;;;;;;15.41;39.27;100123.34;10082213;29;20258;-81
2022/09/25 18:46:30;;;;;;;7.03;2.93;;;;;;;15.19;39.58;100121.25;10100836;29;20259;-81
2022/09/25 18:51:54;;;;;;;4.43;3.03;;;;;;;15.18;39.58;100128.94;10085964;29;20252;-81
2022/09/25 18:57:16;;;;;;;2.57;1.60;;;;;;;15.65;38.27;100119.41;10092535;29;20238;-81
2022/09/25 19:02:40;;;;;;;3.87;1.87;;;;;;;15.16;40.22;100123.63;10085065;29;20285;-80
2022/09/25 19:08:03;;;;;;;5.30;2.43;;;;;;;14.95;40.71;100122.34;10080112;29;20262;-80
2022/09/25 19:13:26;;;;;;;4.37;2.50;;;;;;;15.38;39.70;100119.22;10091458;29;20261;-85
2022/09/25 19:18:51;;;;;;;6.07;2.60;;;;;;;15.14;40.43;100116.69;10085178;29;20524;-83
2022/09/25 19:24:14;;;;;;;4.37;2.60;;;;;;;15.26;40.55;100119.38;10089735;29;20257;-82
2022/09/25 19:29:36;;;;;;;3.17;1.90;;;;;;;15.24;40.12;100116.09;10080686;29;20847;-83
2022/09/25 19:34:58;;;;;;;3.57;2.00;;;;;;;15.39;39.66;100115.19;10087610;29;20253;-80
2022/09/25 19:40:35;;;;;;;4.03;2.03;;;;;;;14.82;41.53;100112.31;10065326;29;20298;-80
2022/09/25 19:45:57;;;;;;;4.40;1.57;;;;;;;14.86;41.35;100110.38;10076260;29;20218;-80
2022/09/25 19:51:21;;;;;;;3.60;1.70;;;;;;;15.20;40.71;100100.19;10076947;29;20237;-80
2022/09/25 19:56:44;;;;;;;4.17;1.50;;;;;;;14.63;41.40;100108.19;10076509;29;20226;-80
2022/09/25 20:02:08;;;;;;;3.63;1.60;;;;;;;14.59;41.67;100092.31;10093593;29;20221;-80
2022/09/25 20:07:30;;;;;;;2.10;1.83;;;;;;;15.14;40.54;100079.78;10090561;29;20233;-80
2022/09/25 20:12:52;;;;;;;4.55;2.38;;;;;;;14.72;42.00;100086.09;10088346;29;20759;-80
2022/09/25 20:18:15;;;;;;;3.93;1.47;;;;;;;14.60;42.16;100080.56;10088590;29;20229;-80
2022/09/25 20:23:37;;;;;;;4.23;2.10;;;;;;;14.10;43.11;100082.19;10089984;29;20715;-80
2022/09/25 20:29:03;;;;;;;4.23;2.20;;;;;;;14.22;42.87;100078.41;10098673;29;20929;-80
2022/09/25 20:34:25;;;;;;;4.43;2.70;;;;;;;13.66;44.06;100074.91;10088950;29;20265;-80
2022/09/25 20:39:47;;;;;;;5.60;3.00;;;;;;;13.72;43.93;100070.59;10100595;29;20233;-81
2022/09/25 20:45:10;;;;;;;3.93;2.43;;;;;;;14.23;42.97;100051.72;10090013;29;20202;-81
2022/09/25 20:50:32;;;;;;;5.27;1.80;;;;;;;14.73;42.11;100061.41;10089931;29;20233;-81
2022/09/25 20:55:54;;;;;;;2.50;1.73;;;;;;;13.75;43.80;100062.22;10100030;29;20257;-80
2022/09/25 21:01:18;;;;;;;4.07;1.63;;;;;;;14.55;42.29;100052.50;10100693;29;20560;-80
2022/09/25 21:06:40;;;;;;;4.67;2.00;;;;;;;13.75;43.54;100058.56;10101319;29;20233;-80
2022/09/25 21:12:04;;;;;;;6.23;2.03;;;;;;;14.56;42.39;100048.47;10087919;29;20595;-81
2022/09/25 21:17:26;;;;;;;5.60;2.43;;;;;;;13.96;43.16;100046.94;10097276;29;20249;-80
2022/09/25 21:22:51;;;;;;;4.57;2.40;;;;;;;13.88;43.14;100048.78;10098301;29;20841;-82
2022/09/25 21:28:13;;;;;;;3.90;2.30;;;;;;;13.68;44.02;100049.88;10100901;29;20615;-79
2022/09/25 21:33:35;;;;;;;4.73;2.50;;;;;;;13.93;43.58;100039.19;10102420;29;20788;-82
2022/09/25 21:38:58;;;;;;;3.07;1.70;;;;;;;13.14;45.57;100030.56;10084676;29;20229;-79
2022/09/25 21:44:23;;;;;;;4.83;1.93;;;;;;;12.81;46.97;100024.31;10074006;29;20675;-82
2022/09/25 21:49:45;;;;;;;5.23;2.20;;;;;;;12.95;46.36;100024.72;10097133;29;20261;-80
2022/09/25 21:55:08;;;;;;;4.03;1.90;;;;;;;13.52;44.90;100032.88;10105355;29;20344;-79
2022/09/25 22:00:30;;;;;;;4.63;2.27;;;;;;;13.53;45.02;100016.69;10098563;29;20209;-79
2022/09/25 22:05:59;;;;;;;7.07;3.17;;;;;;;13.51;44.64;100013.41;10112557;29;20242;-79
2022/09/25 22:11:23;;;;;;;7.50;2.57;;;;;;;13.59;44.63;100015.22;10108202;29;20202;-79
2022/09/25 22:16:48;;;;;;;5.17;2.07;;;;;;;12.84;45.68;100006.63;10095077;29;20250;-79
2022/09/25 22:22:10;;;;;;;5.57;2.23;;;;;;;13.14;45.26;100007.91;10092970;29;20309;-78
2022/09/25 22:27:33;;;;;;;2.40;2.07;;;;;;;13.06;45.31;100008.88;10094324;29;20257;-81
2022/09/25 22:32:55;;;;;;;3.90;2.37;;;;;;;12.91;45.63;100001.16;10094573;29;20310;-79
2022/09/25 22:38:17;;;;;;;4.73;2.27;;;;;;;13.37;44.71;99996.84;10098766;29;20710;-79
2022/09/25 22:43:40;;;;;;;4.17;1.60;;;;;;;13.30;44.10;99990.97;10100432;29;20222;-78
2022/09/25 22:49:02;;;;;;;5.73;1.77;;;;;;;13.21;44.13;99981.84;10093974;29;20257;-79
2022/09/25 22:54:24;;;;;;;5.90;1.80;;;;;;;12.68;45.85;99981.09;10112893;29;20248;-79
2022/09/25 22:59:47;;;;;;;4.03;1.57;;;;;;;12.77;45.46;99978.97;10109584;29;20225;-82
2022/09/25 23:05:09;;;;;;;3.57;1.73;;;;;;;13.59;43.58;99972.75;10095334;29;20202;-79
2022/09/25 23:10:33;;;;;;;4.17;1.77;;;;;;;12.82;44.91;99970.22;10122744;29;20523;-81
2022/09/25 23:15:55;;;;;;;4.57;1.80;;;;;;;12.85;45.53;99965.84;10110087;29;20701;-82
2022/09/25 23:21:17;;;;;;;3.53;1.73;;;;;;;12.84;45.24;99956.53;10123825;29;20686;-82
2022/09/25 23:26:40;;;;;;;2.70;1.67;;;;;;;13.01;44.87;99950.56;10078792;29;20222;-82
2022/09/25 23:32:06;;;;;;;2.60;1.07;;;;;;;13.45;43.96;99944.06;10089406;29;20258;-82
2022/09/25 23:37:28;;;;;;;4.33;1.50;;;;;;;13.67;42.99;99932.94;10094339;29;20225;-81
2022/09/25 23:42:50;;;;;;;4.03;1.60;;;;;;;13.74;42.74;99924.59;10111903;29;20513;-81
2022/09/25 23:48:14;;;;;;;3.47;1.30;;;;;;;14.39;41.65;99919.28;10095619;29;20290;-84
2022/09/25 23:53:37;;;;;;;4.17;1.53;;;;;;;13.95;42.56;99904.47;10081617;29;20283;-81
2022/09/25 23:59:00;;;;;;;2.70;1.50;;;;;;;13.36;43.99;99921.59;10128098;29;20599;-81
